sensor_id;sensor_type;location;lat;lon;timestamp;pressure;altitude;pressure_sealevel;temperature;humidity
38939;BME280;24211;49.980;19.776;2023-02-11T00:01:19;101072.00;;;1.86;100.00
38939;BME280;24211;49.980;19.776;2023-02-11T00:03:46;101071.03;;;1.87;100.00
38939;BME280;24211;49.980;19.776;2023-02-11T00:06:14;101067.44;;;1.88;100.00
38939;BME280;24211;49.980;19.776;2023-02-11T00:08:42;101062.88;;;1.90;100.00
38939;BME280;24211;49.980;19.776;2023-02-11T00:11:13;101076.91;;;1.90;100.00
38939;BME280;24211;49.980;19.776;2023-02-11T00:13:42;101077.75;;;1.91;100.00
38939;BME280;24211;49.980;19.776;2023-02-11T00:16:15;101069.94;;;1.89;100.00
38939;BME280;24211;49.980;19.776;2023-02-11T00:18:44;101072.47;;;1.91;100.00
38939;BME280;24211;49.980;19.776;2023-02-11T00:21:19;101071.63;;;1.90;100.00
38939;BME280;24211;49.980;19.776;2023-02-11T00:23:47;101055.97;;;1.89;100.00
38939;BME280;24211;49.980;19.776;2023-02-11T00:26:22;101063.88;;;1.89;100.00
38939;BME280;24211;49.980;19.776;2023-02-11T00:28:51;101056.19;;;1.86;100.00
38939;BME280;24211;49.980;19.776;2023-02-11T00:31:21;101057.16;;;1.85;100.00
38939;BME280;24211;49.980;19.776;2023-02-11T00:33:49;101055.50;;;1.84;100.00
38939;BME280;24211;49.980;19.776;2023-02-11T00:36:24;101046.84;;;1.82;100.00
38939;BME280;24211;49.980;19.776;2023-02-11T00:38:54;101045.19;;;1.81;100.00
38939;BME280;24211;49.980;19.776;2023-02-11T00:41:22;101038.25;;;1.80;100.00
38939;BME280;24211;49.980;19.776;2023-02-11T00:43:51;101039.94;;;1.81;100.00
38939;BME280;24211;49.980;19.776;2023-02-11T00:46:18;101039.94;;;1.81;100.00
38939;BME280;24211;49.980;19.776;2023-02-11T00:48:46;101035.75;;;1.78;100.00
38939;BME280;24211;49.980;19.776;2023-02-11T00:51:13;101033.25;;;1.77;100.00
38939;BME280;24211;49.980;19.776;2023-02-11T00:53:41;101024.59;;;1.75;100.00
38939;BME280;24211;49.980;19.776;2023-02-11T00:56:08;101017.69;;;1.74;100.00
38939;BME280;24211;49.980;19.776;2023-02-11T00:58:36;101011.56;;;1.73;100.00
38939;BME280;24211;49.980;19.776;2023-02-11T01:01:04;101012.50;;;1.72;100.00
38939;BME280;24211;49.980;19.776;2023-02-11T01:03:32;101012.66;;;1.71;100.00
38939;BME280;24211;49.980;19.776;2023-02-11T01:05:59;101004.03;;;1.69;100.00
38939;BME280;24211;49.980;19.776;2023-02-11T01:08:27;101003.34;;;1.67;100.00
38939;BME280;24211;49.980;19.776;2023-02-11T01:11:07;100999.88;;;1.66;100.00
38939;BME280;24211;49.980;19.776;2023-02-11T01:13:37;100978.88;;;1.65;100.00
38939;BME280;24211;49.980;19.776;2023-02-11T01:16:09;100972.22;;;1.61;100.00
38939;BME280;24211;49.980;19.776;2023-02-11T01:18:38;100954.72;;;1.60;100.00
38939;BME280;24211;49.980;19.776;2023-02-11T01:21:05;100952.09;;;1.60;100.00
38939;BME280;24211;49.980;19.776;2023-02-11T01:23:33;100943.47;;;1.58;100.00
38939;BME280;24211;49.980;19.776;2023-02-11T01:26:01;100947.94;;;1.57;100.00
38939;BME280;24211;49.980;19.776;2023-02-11T01:28:29;100949.03;;;1.55;100.00
38939;BME280;24211;49.980;19.776;2023-02-11T01:31:00;100950.94;;;1.53;100.00
38939;BME280;24211;49.980;19.776;2023-02-11T01:33:29;100951.75;;;1.53;100.00
38939;BME280;24211;49.980;19.776;2023-02-11T01:36:01;100953.94;;;1.48;100.00
38939;BME280;24211;49.980;19.776;2023-02-11T01:38:30;100948.13;;;1.45;100.00
38939;BME280;24211;49.980;19.776;2023-02-11T01:41:07;100942.00;;;1.44;100.00
38939;BME280;24211;49.980;19.776;2023-02-11T01:43:45;100929.22;;;1.40;100.00
38939;BME280;24211;49.980;19.776;2023-02-11T01:46:35;100921.41;;;1.38;100.00
38939;BME280;24211;49.980;19.776;2023-02-11T01:49:10;100926.81;;;1.37;100.00
38939;BME280;24211;49.980;19.776;2023-02-11T01:52:01;100929.47;;;1.37;100.00
38939;BME280;24211;49.980;19.776;2023-02-11T01:54:35;100926.81;;;1.37;100.00
38939;BME280;24211;49.980;19.776;2023-02-11T01:57:25;100915.84;;;1.31;100.00
38939;BME280;24211;49.980;19.776;2023-02-11T02:00:31;100905.44;;;1.30;100.00
38939;BME280;24211;49.980;19.776;2023-02-11T02:03:18;100902.22;;;1.26;100.00
38939;BME280;24211;49.980;19.776;2023-02-11T02:06:06;100900.28;;;1.28;100.00
38939;BME280;24211;49.980;19.776;2023-02-11T02:08:43;100896.00;;;1.27;100.00
38939;BME280;24211;49.980;19.776;2023-02-11T02:11:13;100900.53;;;1.25;100.00
38939;BME280;24211;49.980;19.776;2023-02-11T02:13:40;100893.59;;;1.24;100.00
38939;BME280;24211;49.980;19.776;2023-02-11T02:16:14;100882.47;;;1.21;100.00
38939;BME280;24211;49.980;19.776;2023-02-11T02:28:43;100903.47;;;1.11;100.00
38939;BME280;24211;49.980;19.776;2023-02-11T02:31:33;100910.66;;;1.09;100.00
38939;BME280;24211;49.980;19.776;2023-02-11T02:34:19;100910.91;;;1.06;100.00
38939;BME280;24211;49.980;19.776;2023-02-11T02:37:14;100903.00;;;1.06;100.00
38939;BME280;24211;49.980;19.776;2023-02-11T02:39:45;100903.72;;;1.08;100.00
38939;BME280;24211;49.980;19.776;2023-02-11T02:42:17;100911.88;;;1.05;100.00
38939;BME280;24211;49.980;19.776;2023-02-11T02:44:49;100905.19;;;1.01;100.00
38939;BME280;24211;49.980;19.776;2023-02-11T02:47:18;100896.34;;;1.02;100.00
38939;BME280;24211;49.980;19.776;2023-02-11T02:49:45;100880.53;;;1.02;100.00
38939;BME280;24211;49.980;19.776;2023-02-11T02:58:37;100863.75;;;1.03;100.00
38939;BME280;24211;49.980;19.776;2023-02-11T03:04:41;100865.44;;;1.04;100.00
38939;BME280;24211;49.980;19.776;2023-02-11T03:07:27;100849.66;;;1.04;100.00
38939;BME280;24211;49.980;19.776;2023-02-11T03:10:13;100850.50;;;1.05;100.00
38939;BME280;24211;49.980;19.776;2023-02-11T03:12:45;100847.16;;;1.03;100.00
38939;BME280;24211;49.980;19.776;2023-02-11T03:15:17;100830.53;;;1.02;100.00
38939;BME280;24211;49.980;19.776;2023-02-11T03:17:48;100817.22;;;1.04;100.00
38939;BME280;24211;49.980;19.776;2023-02-11T03:20:21;100797.84;;;1.05;100.00
38939;BME280;24211;49.980;19.776;2023-02-11T03:22:59;100783.13;;;1.02;100.00
38939;BME280;24211;49.980;19.776;2023-02-11T03:25:42;100764.72;;;1.02;100.00
38939;BME280;24211;49.980;19.776;2023-02-11T03:28:33;100748.22;;;1.00;100.00
38939;BME280;24211;49.980;19.776;2023-02-11T03:31:26;100743.19;;;0.97;100.00
38939;BME280;24211;49.980;19.776;2023-02-11T03:34:06;100748.47;;;0.97;100.00
38939;BME280;24211;49.980;19.776;2023-02-11T03:36:48;100759.94;;;0.96;100.00
38939;BME280;24211;49.980;19.776;2023-02-11T03:39:30;100740.72;;;0.96;100.00
38939;BME280;24211;49.980;19.776;2023-02-11T03:42:02;100735.44;;;0.96;100.00
38939;BME280;24211;49.980;19.776;2023-02-11T03:44:37;100727.66;;;0.94;100.00
38939;BME280;24211;49.980;19.776;2023-02-11T03:47:09;100714.69;;;1.02;100.00
38939;BME280;24211;49.980;19.776;2023-02-11T03:49:39;100707.50;;;1.04;100.00
38939;BME280;24211;49.980;19.776;2023-02-11T03:52:10;100717.19;;;1.04;100.00
38939;BME280;24211;49.980;19.776;2023-02-11T03:54:42;100722.34;;;1.05;100.00
38939;BME280;24211;49.980;19.776;2023-02-11T03:57:10;100733.22;;;1.01;100.00
38939;BME280;24211;49.980;19.776;2023-02-11T03:59:54;100731.28;;;0.93;100.00
38939;BME280;24211;49.980;19.776;2023-02-11T04:02:28;100742.31;;;0.87;100.00
38939;BME280;24211;49.980;19.776;2023-02-11T04:04:57;100742.56;;;0.84;100.00
38939;BME280;24211;49.980;19.776;2023-02-11T04:07:25;100733.47;;;0.88;100.00
38939;BME280;24211;49.980;19.776;2023-02-11T04:09:52;100721.56;;;0.94;100.00
38939;BME280;24211;49.980;19.776;2023-02-11T04:12:20;100706.59;;;0.94;100.00
38939;BME280;24211;49.980;19.776;2023-02-11T04:14:47;100699.41;;;0.96;100.00
38939;BME280;24211;49.980;19.776;2023-02-11T04:17:14;100700.13;;;0.98;100.00
38939;BME280;24211;49.980;19.776;2023-02-11T04:19:41;100693.88;;;0.99;100.00
38939;BME280;24211;49.980;19.776;2023-02-11T04:22:09;100699.41;;;0.96;100.00
38939;BME280;24211;49.980;19.776;2023-02-11T04:24:36;100692.75;;;0.92;100.00
38939;BME280;24211;49.980;19.776;2023-02-11T04:27:03;100672.53;;;0.93;100.00
38939;BME280;24211;49.980;19.776;2023-02-11T04:29:30;100664.50;;;0.94;100.00
38939;BME280;24211;49.980;19.776;2023-02-11T04:31:58;100654.66;;;0.96;100.00
38939;BME280;24211;49.980;19.776;2023-02-11T04:34:25;100651.09;;;0.97;100.00
38939;BME280;24211;49.980;19.776;2023-02-11T04:36:53;100645.66;;;0.99;100.00
38939;BME280;24211;49.980;19.776;2023-02-11T04:39:20;100650.81;;;1.00;100.00
38939;BME280;24211;49.980;19.776;2023-02-11T04:41:47;100656.78;;;1.02;100.00
38939;BME280;24211;49.980;19.776;2023-02-11T04:44:14;100648.19;;;1.00;100.00
38939;BME280;24211;49.980;19.776;2023-02-11T04:46:41;100644.56;;;1.01;100.00
38939;BME280;24211;49.980;19.776;2023-02-11T04:49:12;100645.41;;;1.02;100.00
38939;BME280;24211;49.980;19.776;2023-02-11T04:51:41;100649.84;;;1.01;100.00
38939;BME280;24211;49.980;19.776;2023-02-11T04:54:08;100646.50;;;0.99;100.00
38939;BME280;24211;49.980;19.776;2023-02-11T04:56:35;100651.78;;;0.99;100.00
38939;BME280;24211;49.980;19.776;2023-02-11T04:59:04;100651.78;;;0.99;100.00
38939;BME280;24211;49.980;19.776;2023-02-11T05:01:32;100660.66;;;0.98;100.00
38939;BME280;24211;49.980;19.776;2023-02-11T05:03:59;100663.41;;;0.97;100.00
38939;BME280;24211;49.980;19.776;2023-02-11T05:06:27;100669.66;;;0.96;100.00
38939;BME280;24211;49.980;19.776;2023-02-11T05:08:54;100673.38;;;0.93;100.00
38939;BME280;24211;49.980;19.776;2023-02-11T05:11:24;100687.22;;;0.95;100.00
38939;BME280;24211;49.980;19.776;2023-02-11T05:13:52;100683.91;;;0.93;100.00
38939;BME280;24211;49.980;19.776;2023-02-11T05:16:19;100683.16;;;0.91;100.00
38939;BME280;24211;49.980;19.776;2023-02-11T05:18:46;100678.19;;;0.88;100.00
38939;BME280;24211;49.980;19.776;2023-02-11T05:21:17;100670.28;;;0.88;100.00
38939;BME280;24211;49.980;19.776;2023-02-11T05:23:45;100660.56;;;0.89;100.00
38939;BME280;24211;49.980;19.776;2023-02-11T05:26:13;100665.03;;;0.88;100.00
38939;BME280;24211;49.980;19.776;2023-02-11T05:28:41;100657.84;;;0.90;100.00
38939;BME280;24211;49.980;19.776;2023-02-11T05:31:10;100653.41;;;0.91;100.00
38939;BME280;24211;49.980;19.776;2023-02-11T05:33:37;100652.56;;;0.90;100.00
38939;BME280;24211;49.980;19.776;2023-02-11T05:36:09;100648.00;;;0.92;100.00
38939;BME280;24211;49.980;19.776;2023-02-11T05:38:37;100656.03;;;0.91;100.00
38939;BME280;24211;49.980;19.776;2023-02-11T05:41:05;100660.22;;;0.93;100.00
38939;BME280;24211;49.980;19.776;2023-02-11T05:43:33;100658.38;;;0.94;100.00
38939;BME280;24211;49.980;19.776;2023-02-11T05:46:04;100659.22;;;0.94;100.00
38939;BME280;24211;49.980;19.776;2023-02-11T05:48:32;100667.13;;;0.94;100.00
38939;BME280;24211;49.980;19.776;2023-02-11T05:50:59;100649.53;;;0.95;100.00
38939;BME280;24211;49.980;19.776;2023-02-11T05:53:26;100650.38;;;0.95;100.00
38939;BME280;24211;49.980;19.776;2023-02-11T05:55:54;100645.13;;;0.95;100.00
38939;BME280;24211;49.980;19.776;2023-02-11T05:58:21;100648.69;;;0.94;100.00
38939;BME280;24211;49.980;19.776;2023-02-11T06:00:48;100662.84;;;0.93;100.00
38939;BME280;24211;49.980;19.776;2023-02-11T06:03:15;100659.47;;;0.91;100.00
38939;BME280;24211;49.980;19.776;2023-02-11T06:05:45;100650.19;;;0.87;100.00
38939;BME280;24211;49.980;19.776;2023-02-11T06:08:12;100652.81;;;0.87;100.00
38939;BME280;24211;49.980;19.776;2023-02-11T06:10:39;100652.81;;;0.87;100.00
38939;BME280;24211;49.980;19.776;2023-02-11T06:13:08;100665.03;;;0.88;100.00
38939;BME280;24211;49.980;19.776;2023-02-11T06:15:36;100658.09;;;0.87;100.00
38939;BME280;24211;49.980;19.776;2023-02-11T06:18:03;100652.81;;;0.87;100.00
38939;BME280;24211;49.980;19.776;2023-02-11T06:20:30;100638.72;;;0.88;100.00
38939;BME280;24211;49.980;19.776;2023-02-11T06:22:59;100626.50;;;0.87;100.00
38939;BME280;24211;49.980;19.776;2023-02-11T06:25:27;100611.56;;;0.88;100.00
38939;BME280;24211;49.980;19.776;2023-02-11T06:27:54;100597.41;;;0.89;100.00
38939;BME280;24211;49.980;19.776;2023-02-11T06:30:21;100591.34;;;0.88;100.00
38939;BME280;24211;49.980;19.776;2023-02-11T06:32:48;100583.44;;;0.88;100.00
38939;BME280;24211;49.980;19.776;2023-02-11T06:35:16;100575.56;;;0.88;100.00
38939;BME280;24211;49.980;19.776;2023-02-11T06:37:44;100573.88;;;0.87;100.00
38939;BME280;24211;49.980;19.776;2023-02-11T06:40:12;100573.03;;;0.87;100.00
38939;BME280;24211;49.980;19.776;2023-02-11T06:42:39;100573.88;;;0.87;100.00
38939;BME280;24211;49.980;19.776;2023-02-11T06:45:07;100586.78;;;0.90;100.00
38939;BME280;24211;49.980;19.776;2023-02-11T06:47:39;100590.25;;;0.91;100.00
38939;BME280;24211;49.980;19.776;2023-02-11T06:50:11;100574.16;;;0.94;100.00
38939;BME280;24211;49.980;19.776;2023-02-11T06:52:39;100568.78;;;0.95;100.00
38939;BME280;24211;49.980;19.776;2023-02-11T06:55:06;100579.19;;;0.97;100.00
38939;BME280;24211;49.980;19.776;2023-02-11T06:57:33;100583.59;;;0.96;100.00
38939;BME280;24211;49.980;19.776;2023-02-11T07:00:01;100582.91;;;0.94;100.00
38939;BME280;24211;49.980;19.776;2023-02-11T07:02:28;100574.06;;;0.95;100.00
38939;BME280;24211;49.980;19.776;2023-02-11T07:04:56;100562.53;;;0.96;100.00
38939;BME280;24211;49.980;19.776;2023-02-11T07:07:23;100568.53;;;0.98;100.00
38939;BME280;24211;49.980;19.776;2023-02-11T07:09:50;100565.63;;;1.01;100.00
38939;BME280;24211;49.980;19.776;2023-02-11T07:12:17;100569.22;;;1.00;100.00
38939;BME280;24211;49.980;19.776;2023-02-11T07:14:44;100582.50;;;0.99;100.00
38939;BME280;24211;49.980;19.776;2023-02-11T07:17:11;100592.06;;;1.00;100.00
38939;BME280;24211;49.980;19.776;2023-02-11T07:19:39;100594.56;;;1.01;100.00
38939;BME280;24211;49.980;19.776;2023-02-11T07:22:06;100598.63;;;1.05;100.00
38939;BME280;24211;49.980;19.776;2023-02-11T07:24:33;100601.41;;;1.13;100.00
38939;BME280;24211;49.980;19.776;2023-02-11T07:27:00;100582.03;;;1.24;100.00
38939;BME280;24211;49.980;19.776;2023-02-11T07:29:27;100579.44;;;1.33;100.00
38939;BME280;24211;49.980;19.776;2023-02-11T07:31:54;100585.69;;;1.33;100.00
38939;BME280;24211;49.980;19.776;2023-02-11T07:34:22;100594.53;;;1.31;100.00
38939;BME280;24211;49.980;19.776;2023-02-11T07:36:49;100592.06;;;1.30;100.00
38939;BME280;24211;49.980;19.776;2023-02-11T07:39:19;100573.63;;;1.30;100.00
38939;BME280;24211;49.980;19.776;2023-02-11T07:42:14;100566.25;;;1.33;100.00
38939;BME280;24211;49.980;19.776;2023-02-11T07:44:41;100565.31;;;1.35;100.00
38939;BME280;24211;49.980;19.776;2023-02-11T07:47:08;100559.88;;;1.36;100.00
38939;BME280;24211;49.980;19.776;2023-02-11T07:49:36;100556.41;;;1.36;100.00
38939;BME280;24211;49.980;19.776;2023-02-11T07:52:03;100557.41;;;1.35;100.00
38939;BME280;24211;49.980;19.776;2023-02-11T07:54:30;100567.94;;;1.35;100.00
38939;BME280;24211;49.980;19.776;2023-02-11T07:56:57;100568.63;;;1.37;100.00
38939;BME280;24211;49.980;19.776;2023-02-11T07:59:24;100567.69;;;1.38;100.00
38939;BME280;24211;49.980;19.776;2023-02-11T08:01:53;100566.84;;;1.37;100.00
38939;BME280;24211;49.980;19.776;2023-02-11T08:04:20;100571.97;;;1.39;100.00
38939;BME280;24211;49.980;19.776;2023-02-11T08:06:47;100581.53;;;1.40;100.00
38939;BME280;24211;49.980;19.776;2023-02-11T08:09:15;100579.59;;;1.42;100.00
38939;BME280;24211;49.980;19.776;2023-02-11T08:11:43;100572.38;;;1.44;100.00
38939;BME280;24211;49.980;19.776;2023-02-11T08:14:11;100564.91;;;1.49;100.00
38939;BME280;24211;49.980;19.776;2023-02-11T08:16:39;100557.31;;;1.84;100.00
38939;BME280;24211;49.980;19.776;2023-02-11T08:19:15;100566.25;;;2.48;100.00
38939;BME280;24211;49.980;19.776;2023-02-11T08:21:43;100558.69;;;2.73;100.00
38939;BME280;24211;49.980;19.776;2023-02-11T08:24:11;100548.03;;;2.64;100.00
38939;BME280;24211;49.980;19.776;2023-02-11T08:26:38;100532.09;;;2.84;100.00
38939;BME280;24211;49.980;19.776;2023-02-11T08:29:10;100530.25;;;2.94;100.00
38939;BME280;24211;49.980;19.776;2023-02-11T08:31:42;100527.41;;;3.05;100.00
38939;BME280;24211;49.980;19.776;2023-02-11T08:34:12;100521.06;;;2.98;100.00
38939;BME280;24211;49.980;19.776;2023-02-11T08:36:41;100526.78;;;2.56;100.00
38939;BME280;24211;49.980;19.776;2023-02-11T08:39:18;100524.00;;;2.02;100.00
38939;BME280;24211;49.980;19.776;2023-02-11T08:41:51;100524.16;;;1.72;100.00
38939;BME280;24211;49.980;19.776;2023-02-11T08:44:20;100523.75;;;1.67;100.00
38939;BME280;24211;49.980;19.776;2023-02-11T08:46:49;100528.03;;;1.68;100.00
38939;BME280;24211;49.980;19.776;2023-02-11T08:49:17;100533.88;;;1.71;100.00
38939;BME280;24211;49.980;19.776;2023-02-11T08:51:45;100546.63;;;1.76;100.00
38939;BME280;24211;49.980;19.776;2023-02-11T08:54:14;100546.38;;;1.79;100.00
38939;BME280;24211;49.980;19.776;2023-02-11T08:56:41;100541.78;;;1.81;100.00
38939;BME280;24211;49.980;19.776;2023-02-11T08:59:13;100540.66;;;1.83;100.00
38939;BME280;24211;49.980;19.776;2023-02-11T09:01:41;100547.19;;;1.89;100.00
38939;BME280;24211;49.980;19.776;2023-02-11T09:04:10;100540.94;;;1.99;100.00
38939;BME280;24211;49.980;19.776;2023-02-11T09:06:37;100536.22;;;2.03;100.00
38939;BME280;24211;49.980;19.776;2023-02-11T09:09:05;100530.53;;;2.08;100.00
38939;BME280;24211;49.980;19.776;2023-02-11T09:11:34;100529.41;;;2.10;100.00
38939;BME280;24211;49.980;19.776;2023-02-11T09:14:03;100526.34;;;2.05;100.00
38939;BME280;24211;49.980;19.776;2023-02-11T09:16:34;100525.25;;;1.98;100.00
38939;BME280;24211;49.980;19.776;2023-02-11T09:19:04;100525.78;;;2.02;100.00
38939;BME280;24211;49.980;19.776;2023-02-11T09:21:31;100531.34;;;2.08;100.00
38939;BME280;24211;49.980;19.776;2023-02-11T09:23:59;100525.09;;;2.09;100.00
38939;BME280;24211;49.980;19.776;2023-02-11T09:26:33;100520.81;;;2.08;100.00
38939;BME280;24211;49.980;19.776;2023-02-11T09:29:01;100516.06;;;2.12;100.00
38939;BME280;24211;49.980;19.776;2023-02-11T09:31:31;100507.34;;;2.11;100.00
38939;BME280;24211;49.980;19.776;2023-02-11T09:34:04;100509.16;;;2.11;100.00
38939;BME280;24211;49.980;19.776;2023-02-11T09:36:36;100519.00;;;2.18;100.00
38939;BME280;24211;49.980;19.776;2023-02-11T09:39:10;100525.50;;;2.14;100.00
38939;BME280;24211;49.980;19.776;2023-02-11T09:42:09;100523.00;;;2.22;100.00
38939;BME280;24211;49.980;19.776;2023-02-11T09:44:46;100529.94;;;2.23;100.00
38939;BME280;24211;49.980;19.776;2023-02-11T09:47:34;100541.59;;;2.30;100.00
38939;BME280;24211;49.980;19.776;2023-02-11T09:50:14;100533.78;;;2.38;100.00
38939;BME280;24211;49.980;19.776;2023-02-11T09:53:06;100536.72;;;2.35;100.00
38939;BME280;24211;49.980;19.776;2023-02-11T09:55:44;100528.63;;;2.46;100.00
38939;BME280;24211;49.980;19.776;2023-02-11T09:58:24;100529.88;;;2.52;100.00
38939;BME280;24211;49.980;19.776;2023-02-11T10:06:49;100537.00;;;2.79;100.00
38939;BME280;24211;49.980;19.776;2023-02-11T10:12:50;100531.63;;;2.98;100.00
38939;BME280;24211;49.980;19.776;2023-02-11T10:23:41;100483.66;;;3.20;100.00
38939;BME280;24211;49.980;19.776;2023-02-11T10:26:18;100475.53;;;3.31;100.00
38939;BME280;24211;49.980;19.776;2023-02-11T10:28:51;100472.38;;;3.45;100.00
38939;BME280;24211;49.980;19.776;2023-02-11T10:31:27;100481.72;;;3.57;100.00
38939;BME280;24211;49.980;19.776;2023-02-11T10:34:05;100467.31;;;3.69;100.00
38939;BME280;24211;49.980;19.776;2023-02-11T10:36:37;100466.75;;;3.83;100.00
38939;BME280;24211;49.980;19.776;2023-02-11T10:39:19;100451.94;;;3.90;100.00
38939;BME280;24211;49.980;19.776;2023-02-11T10:41:53;100445.72;;;4.00;100.00
38939;BME280;24211;49.980;19.776;2023-02-11T10:44:33;100448.44;;;4.08;100.00
38939;BME280;24211;49.980;19.776;2023-02-11T10:47:11;100443.34;;;4.14;100.00
38939;BME280;24211;49.980;19.776;2023-02-11T10:49:44;100425.38;;;4.26;100.00
38939;BME280;24211;49.980;19.776;2023-02-11T10:52:25;100424.44;;;4.35;100.00
38939;BME280;24211;49.980;19.776;2023-02-11T10:55:20;100411.94;;;4.53;100.00
38939;BME280;24211;49.980;19.776;2023-02-11T10:58:00;100406.72;;;4.69;100.00
38939;BME280;24211;49.980;19.776;2023-02-11T11:00:39;100399.16;;;4.90;100.00
38939;BME280;24211;49.980;19.776;2023-02-11T11:03:39;100391.25;;;4.98;100.00
38939;BME280;24211;49.980;19.776;2023-02-11T11:06:12;100385.31;;;5.12;100.00
38939;BME280;24211;49.980;19.776;2023-02-11T11:08:46;100368.06;;;5.16;100.00
38939;BME280;24211;49.980;19.776;2023-02-11T11:11:21;100366.78;;;5.20;100.00
38939;BME280;24211;49.980;19.776;2023-02-11T11:16:34;100351.19;;;5.34;100.00
38939;BME280;24211;49.980;19.776;2023-02-11T11:21:54;100312.25;;;5.50;100.00
38939;BME280;24211;49.980;19.776;2023-02-11T11:24:39;100315.72;;;5.59;100.00
38939;BME280;24211;49.980;19.776;2023-02-11T11:27:18;100320.63;;;5.78;100.00
38939;BME280;24211;49.980;19.776;2023-02-11T11:29:54;100334.91;;;5.93;100.00
38939;BME280;24211;49.980;19.776;2023-02-11T11:32:30;100335.88;;;6.00;100.00
38939;BME280;24211;49.980;19.776;2023-02-11T11:35:03;100341.28;;;6.15;100.00
38939;BME280;24211;49.980;19.776;2023-02-11T11:37:36;100337.13;;;6.20;100.00
38939;BME280;24211;49.980;19.776;2023-02-11T11:42:43;100314.84;;;6.29;100.00
38939;BME280;24211;49.980;19.776;2023-02-11T11:48:08;100306.53;;;6.40;100.00
38939;BME280;24211;49.980;19.776;2023-02-11T11:50:51;100314.09;;;6.51;100.00
38939;BME280;24211;49.980;19.776;2023-02-11T11:53:38;100324.03;;;6.57;100.00
38939;BME280;24211;49.980;19.776;2023-02-11T11:56:26;100333.94;;;6.64;100.00
38939;BME280;24211;49.980;19.776;2023-02-11T11:59:00;100344.94;;;6.61;100.00
38939;BME280;24211;49.980;19.776;2023-02-11T12:01:50;100329.44;;;6.64;100.00
38939;BME280;24211;49.980;19.776;2023-02-11T12:07:31;100328.91;;;6.69;100.00
38939;BME280;24211;49.980;19.776;2023-02-11T12:10:26;100333.25;;;6.70;100.00
38939;BME280;24211;49.980;19.776;2023-02-11T12:13:21;100334.53;;;6.74;100.00
38939;BME280;24211;49.980;19.776;2023-02-11T12:16:29;100337.19;;;6.74;100.00
38939;BME280;24211;49.980;19.776;2023-02-11T12:25:16;100353.59;;;6.46;100.00
38939;BME280;24211;49.980;19.776;2023-02-11T12:27:52;100367.63;;;6.32;100.00
38939;BME280;24211;49.980;19.776;2023-02-11T12:30:33;100372.78;;;6.26;100.00
38939;BME280;24211;49.980;19.776;2023-02-11T12:36:01;100352.44;;;6.10;100.00
38939;BME280;24211;49.980;19.776;2023-02-11T12:41:33;100352.75;;;6.07;100.00
38939;BME280;24211;49.980;19.776;2023-02-11T12:44:51;100349.97;;;6.01;100.00
38939;BME280;24211;49.980;19.776;2023-02-11T12:53:54;100323.44;;;5.92;100.00
38939;BME280;24211;49.980;19.776;2023-02-11T12:57:10;100320.16;;;5.90;100.00
38939;BME280;24211;49.980;19.776;2023-02-11T12:59:57;100284.50;;;5.85;100.00
38939;BME280;24211;49.980;19.776;2023-02-11T13:05:54;100285.19;;;5.79;100.00
38939;BME280;24211;49.980;19.776;2023-02-11T13:08:33;100267.97;;;5.75;100.00
38939;BME280;24211;49.980;19.776;2023-02-11T13:11:11;100280.72;;;5.71;100.00
38939;BME280;24211;49.980;19.776;2023-02-11T13:14:01;100280.91;;;5.70;100.00
38939;BME280;24211;49.980;19.776;2023-02-11T13:16:42;100281.06;;;5.60;100.00
38939;BME280;24211;49.980;19.776;2023-02-11T13:19:22;100285.06;;;5.56;100.00
38939;BME280;24211;49.980;19.776;2023-02-11T13:22:17;100270.16;;;5.47;100.00
38939;BME280;24211;49.980;19.776;2023-02-11T13:28:09;100287.25;;;5.45;100.00
38939;BME280;24211;49.980;19.776;2023-02-11T13:30:40;100280.28;;;5.44;100.00
38939;BME280;24211;49.980;19.776;2023-02-11T13:38:31;100265.06;;;5.38;100.00
38939;BME280;24211;49.980;19.776;2023-02-11T13:43:33;100231.25;;;5.40;100.00
38939;BME280;24211;49.980;19.776;2023-02-11T13:46:05;100250.47;;;5.42;100.00
38939;BME280;24211;49.980;19.776;2023-02-11T13:48:44;100241.84;;;5.40;100.00
38939;BME280;24211;49.980;19.776;2023-02-11T13:51:15;100226.63;;;5.34;100.00
38939;BME280;24211;49.980;19.776;2023-02-11T13:53:54;100203.78;;;5.33;100.00
38939;BME280;24211;49.980;19.776;2023-02-11T13:56:39;100167.31;;;5.35;100.00
38939;BME280;24211;49.980;19.776;2023-02-11T14:02:20;100167.00;;;5.29;100.00
38939;BME280;24211;49.980;19.776;2023-02-11T14:11:07;100189.22;;;5.20;100.00
38939;BME280;24211;49.980;19.776;2023-02-11T14:16:18;100210.44;;;5.20;100.00
38939;BME280;24211;49.980;19.776;2023-02-11T14:19:03;100196.50;;;5.18;100.00
38939;BME280;24211;49.980;19.776;2023-02-11T14:21:37;100224.66;;;5.19;100.00
38939;BME280;24211;49.980;19.776;2023-02-11T14:26:51;100254.31;;;5.15;100.00
38939;BME280;24211;49.980;19.776;2023-02-11T14:29:54;100263.09;;;5.15;100.00
38939;BME280;24211;49.980;19.776;2023-02-11T14:36:12;100279.00;;;5.07;100.00
38939;BME280;24211;49.980;19.776;2023-02-11T14:41:47;100280.00;;;4.98;100.00
38939;BME280;24211;49.980;19.776;2023-02-11T14:44:27;100282.31;;;4.93;100.00
38939;BME280;24211;49.980;19.776;2023-02-11T14:46:56;100292.56;;;4.88;100.00
38939;BME280;24211;49.980;19.776;2023-02-11T14:49:32;100290.56;;;4.82;100.00
38939;BME280;24211;49.980;19.776;2023-02-11T14:52:27;100279.31;;;4.80;100.00
38939;BME280;24211;49.980;19.776;2023-02-11T14:57:44;100283.09;;;4.78;100.00
38939;BME280;24211;49.980;19.776;2023-02-11T15:00:29;100286.91;;;4.75;100.00